createdAt,value
2018-11-21T00:05:59.000Z,24.13
2018-11-21T00:15:59.000Z,24.11
2018-11-21T00:25:59.000Z,24.05
2018-11-21T00:35:59.000Z,24.06
2018-11-21T00:45:59.000Z,23.95
2018-11-21T00:55:59.000Z,23.99
2018-11-21T01:05:59.000Z,23.94
2018-11-21T01:15:59.000Z,23.9
2018-11-21T01:25:59.000Z,23.88
2018-11-21T01:35:59.000Z,23.86
2018-11-21T01:45:59.000Z,23.84
2018-11-21T01:55:59.000Z,23.82
2018-11-21T02:05:59.000Z,23.81
2018-11-21T02:15:59.000Z,23.78
2018-11-21T02:25:59.000Z,23.7
2018-11-21T02:35:59.000Z,23.69
2018-11-21T02:45:59.000Z,23.62
2018-11-21T02:55:59.000Z,23.66
2018-11-21T03:05:59.000Z,23.61
2018-11-21T03:15:59.000Z,23.62
2018-11-21T03:25:59.000Z,23.57
2018-11-21T03:35:59.000Z,23.55
2018-11-21T03:46:00.000Z,23.55
2018-11-21T03:55:59.000Z,23.47
2018-11-21T04:05:59.000Z,23.49
2018-11-21T04:15:59.000Z,23.46
2018-11-21T04:25:59.000Z,23.4
2018-11-21T04:35:59.000Z,23.39
2018-11-21T04:45:59.000Z,23.37
2018-11-21T04:55:59.000Z,23.32
2018-11-21T05:06:00.000Z,23.24
2018-11-21T05:15:59.000Z,23.31
2018-11-21T05:26:00.000Z,23.28
2018-11-21T05:36:00.000Z,23.29
2018-11-21T05:46:00.000Z,23.23
2018-11-21T05:56:00.000Z,23.27
2018-11-21T06:06:00.000Z,23.21
2018-11-21T06:16:00.000Z,23.16
2018-11-21T06:26:00.000Z,23.21
2018-11-21T06:36:00.000Z,23.24
2018-11-21T06:46:00.000Z,23.21
2018-11-21T06:56:00.000Z,23.23
2018-11-21T07:06:00.000Z,23.27
2018-11-21T07:16:00.000Z,23.22
2018-11-21T07:26:00.000Z,23.26
2018-11-21T07:36:00.000Z,23.26
2018-11-21T07:46:00.000Z,23.32
2018-11-21T07:56:00.000Z,23.39
2018-11-21T08:06:00.000Z,23.47
2018-11-21T08:16:00.000Z,23.53
2018-11-21T08:26:00.000Z,23.58
2018-11-21T08:36:00.000Z,23.69
2018-11-21T08:46:00.000Z,23.72
2018-11-21T08:56:00.000Z,23.84
2018-11-21T09:06:00.000Z,23.96
2018-11-21T09:16:00.000Z,24.02
2018-11-21T09:26:00.000Z,24.03
2018-11-21T09:36:00.000Z,24.02
2018-11-21T09:46:00.000Z,24.05
2018-11-21T09:56:00.000Z,24.09
2018-11-21T10:06:00.000Z,24.07
2018-11-21T10:16:00.000Z,24.09
2018-11-21T10:26:00.000Z,24.16
2018-11-21T10:36:00.000Z,24.16
2018-11-21T10:46:00.000Z,24.19
2018-11-21T10:56:00.000Z,24.2
2018-11-21T11:06:00.000Z,24.28
2018-11-21T11:16:00.000Z,24.31
2018-11-21T11:26:00.000Z,24.29
2018-11-21T11:36:00.000Z,24.23
2018-11-21T11:46:00.000Z,24.25
2018-11-21T11:56:00.000Z,24.22
2018-11-21T12:06:00.000Z,24.26
2018-11-21T12:16:00.000Z,24.29
2018-11-21T12:26:00.000Z,24.27
2018-11-21T12:36:01.000Z,24.21
2018-11-21T12:46:00.000Z,24.17
2018-11-21T12:56:00.000Z,24.15
2018-11-21T13:06:00.000Z,24.12
2018-11-21T13:16:01.000Z,24.07
2018-11-21T13:26:00.000Z,23.99
2018-11-21T13:36:01.000Z,23.99
2018-11-21T13:46:01.000Z,23.89
2018-11-21T13:56:01.000Z,23.84
2018-11-21T14:06:01.000Z,23.77
2018-11-21T14:16:01.000Z,23.75
2018-11-21T14:26:01.000Z,23.66
2018-11-21T14:36:01.000Z,23.56
2018-11-21T14:46:01.000Z,23.51
2018-11-21T14:56:01.000Z,23.4
2018-11-21T15:06:01.000Z,23.36
2018-11-21T15:16:01.000Z,23.24
2018-11-21T15:26:01.000Z,23.27
2018-11-21T15:36:01.000Z,23.22
2018-11-21T15:56:01.000Z,22.9
2018-11-21T16:06:01.000Z,22.83
2018-11-21T16:16:01.000Z,22.76
2018-11-21T16:26:01.000Z,22.72
2018-11-21T16:36:01.000Z,22.7
2018-11-21T16:46:01.000Z,22.69
2018-11-21T16:56:01.000Z,22.67
2018-11-21T17:06:01.000Z,22.66
2018-11-21T17:16:01.000Z,22.62
2018-11-21T17:26:01.000Z,22.58
2018-11-21T17:36:01.000Z,22.58
2018-11-21T17:46:01.000Z,22.56
2018-11-21T17:56:01.000Z,22.63
2018-11-21T18:06:01.000Z,22.72
2018-11-21T18:16:01.000Z,22.78
2018-11-21T18:26:01.000Z,22.85
2018-11-21T18:36:01.000Z,22.66
2018-11-21T18:46:01.000Z,22.61
2018-11-21T18:56:01.000Z,22.57
2018-11-21T19:06:01.000Z,22.48
2018-11-21T19:16:01.000Z,21.44
2018-11-21T19:26:02.000Z,22.09
2018-11-21T19:36:02.000Z,22.13
2018-11-21T19:46:01.000Z,22.32
2018-11-21T19:56:01.000Z,22.25
2018-11-21T20:06:05.000Z,22.26
2018-11-21T20:16:01.000Z,22.02
2018-11-21T20:36:01.000Z,21.99
2018-11-21T20:46:01.000Z,21.94
2018-11-21T20:56:01.000Z,21.84
2018-11-21T21:06:01.000Z,21.78
2018-11-21T21:16:01.000Z,21.7
2018-11-21T21:26:01.000Z,21.48
2018-11-21T21:36:04.000Z,18.85
2018-11-21T21:46:01.000Z,18.72
2018-11-21T21:56:02.000Z,20.14
2018-11-21T22:06:02.000Z,20.72
2018-11-21T22:16:02.000Z,20.85
2018-11-21T22:26:02.000Z,20.87
2018-11-21T22:36:02.000Z,20.88
2018-11-21T22:46:02.000Z,20.84
2018-11-21T22:56:02.000Z,20.81
2018-11-21T23:06:02.000Z,20.76
2018-11-21T23:16:02.000Z,20.76
2018-11-21T23:36:02.000Z,20.62
2018-11-21T23:46:02.000Z,20.58
2018-11-21T23:56:04.000Z,20.55
